createdAt,value
2022-11-15T00:02:25.439Z,13.98
2022-11-15T00:05:12.069Z,13.98
2022-11-15T00:07:58.804Z,13.98
2022-11-15T00:10:56.815Z,13.93
2022-11-15T00:13:43.275Z,13.90
2022-11-15T00:16:29.937Z,13.85
2022-11-15T00:19:16.279Z,13.81
2022-11-15T00:22:02.821Z,13.75
2022-11-15T00:24:49.529Z,13.72
2022-11-15T00:27:36.213Z,13.66
2022-11-15T00:30:23.492Z,13.62
2022-11-15T00:33:11.114Z,13.61
2022-11-15T00:36:16.157Z,13.56
2022-11-15T00:39:05.839Z,13.54
2022-11-15T00:41:52.401Z,13.49
2022-11-15T00:44:38.986Z,13.45
2022-11-15T00:47:25.408Z,13.38
2022-11-15T00:50:15.217Z,13.34
2022-11-15T00:53:02.493Z,13.34
2022-11-15T00:55:48.814Z,13.31
2022-11-15T00:58:35.517Z,13.31
2022-11-15T01:01:22.461Z,13.33
2022-11-15T01:04:09.127Z,13.32
2022-11-15T01:06:55.819Z,13.30
2022-11-15T01:09:42.249Z,13.27
2022-11-15T01:12:28.672Z,13.24
2022-11-15T01:15:15.375Z,13.20
2022-11-15T01:18:02.279Z,13.14
2022-11-15T01:20:48.598Z,13.07
2022-11-15T01:23:35.448Z,13.06
2022-11-15T01:26:22.445Z,13.07
2022-11-15T01:29:08.908Z,13.09
2022-11-15T01:31:55.594Z,13.06
2022-11-15T01:34:42.032Z,13.06
2022-11-15T01:37:28.460Z,13.06
2022-11-15T01:40:16.604Z,13.02
2022-11-15T01:43:37.840Z,13.02
2022-11-15T01:46:36.989Z,13.06
2022-11-15T01:49:25.128Z,13.04
2022-11-15T01:52:18.391Z,13.06
2022-11-15T01:55:16.114Z,13.05
2022-11-15T01:58:05.696Z,13.06
2022-11-15T02:00:53.039Z,13.07
2022-11-15T02:04:00.180Z,13.03
2022-11-15T02:06:49.550Z,13.06
2022-11-15T02:09:38.583Z,13.07
2022-11-15T02:12:25.008Z,13.07
2022-11-15T02:15:12.652Z,13.07
2022-11-15T02:18:08.959Z,13.07
2022-11-15T02:21:14.715Z,13.10
2022-11-15T02:24:20.841Z,13.13
2022-11-15T02:27:30.566Z,13.16
2022-11-15T02:30:32.463Z,13.23
2022-11-15T02:33:56.585Z,13.23
2022-11-15T02:37:12.669Z,13.23
2022-11-15T02:40:53.849Z,13.22
2022-11-15T02:43:59.611Z,13.27
2022-11-15T02:47:10.445Z,13.26
2022-11-15T02:50:08.391Z,13.27
2022-11-15T02:52:55.320Z,13.30
2022-11-15T02:55:52.187Z,13.30
2022-11-15T02:59:28.906Z,13.28
2022-11-15T03:02:48.093Z,13.29
2022-11-15T03:06:15.338Z,13.23
2022-11-15T03:09:15.236Z,13.20
2022-11-15T03:12:38.638Z,13.15
2022-11-15T03:15:33.586Z,13.17
2022-11-15T03:18:45.001Z,13.15
2022-11-15T03:21:34.190Z,13.19
2022-11-15T03:24:25.988Z,13.15
2022-11-15T03:27:19.815Z,13.14
2022-11-15T03:30:10.078Z,13.16
2022-11-15T03:32:59.762Z,13.18
2022-11-15T03:35:48.485Z,13.21
2022-11-15T03:38:36.669Z,13.27
2022-11-15T03:41:50.169Z,13.32
2022-11-15T03:44:52.693Z,13.39
2022-11-15T03:48:00.887Z,13.40
2022-11-15T03:50:48.858Z,13.44
2022-11-15T03:53:35.431Z,13.47
2022-11-15T03:56:22.103Z,13.54
2022-11-15T03:59:08.921Z,13.61
2022-11-15T04:01:55.605Z,13.63
2022-11-15T04:04:42.515Z,13.69
2022-11-15T04:07:29.228Z,13.66
2022-11-15T04:10:16.717Z,13.62
2022-11-15T04:13:04.492Z,13.62
2022-11-15T04:15:50.922Z,13.63
2022-11-15T04:18:37.620Z,13.65
2022-11-15T04:21:42.770Z,13.68
2022-11-15T04:24:29.702Z,13.70
2022-11-15T04:27:16.162Z,13.71
2022-11-15T04:30:02.817Z,13.73
2022-11-15T04:32:49.270Z,13.69
2022-11-15T04:35:35.823Z,13.68
2022-11-15T04:38:22.640Z,13.67
2022-11-15T04:41:09.187Z,13.63
2022-11-15T04:43:56.230Z,13.63
2022-11-15T04:46:42.913Z,13.62
2022-11-15T04:49:29.598Z,13.56
2022-11-15T04:52:16.421Z,13.58
2022-11-15T04:55:07.908Z,13.59
2022-11-15T04:58:03.099Z,13.62
2022-11-15T05:00:49.712Z,13.61
2022-11-15T05:03:54.829Z,13.65
2022-11-15T05:06:41.619Z,13.69
2022-11-15T05:09:28.308Z,13.66
2022-11-15T05:12:15.099Z,13.64
2022-11-15T05:15:01.659Z,13.65
2022-11-15T05:17:48.709Z,13.63
2022-11-15T05:20:35.145Z,13.67
2022-11-15T05:23:21.966Z,13.69
2022-11-15T05:26:09.975Z,13.73
2022-11-15T05:28:59.068Z,13.73
2022-11-15T05:31:45.730Z,13.73
2022-11-15T05:34:32.899Z,13.74
2022-11-15T05:37:19.682Z,13.76
2022-11-15T05:40:07.336Z,13.77
2022-11-15T05:42:54.274Z,13.74
2022-11-15T05:45:40.837Z,13.74
2022-11-15T05:48:27.623Z,13.77
2022-11-15T05:51:18.037Z,13.74
2022-11-15T05:54:05.074Z,13.68
2022-11-15T05:56:52.129Z,13.61
2022-11-15T05:59:41.541Z,13.62
2022-11-15T06:02:28.285Z,13.64
2022-11-15T06:05:14.909Z,13.67
2022-11-15T06:08:01.843Z,13.65
2022-11-15T06:10:48.273Z,13.66
2022-11-15T06:13:35.811Z,13.67
2022-11-15T06:16:22.611Z,13.70
2022-11-15T06:19:09.402Z,13.71
2022-11-15T06:21:55.879Z,13.74
2022-11-15T06:24:42.168Z,13.75
2022-11-15T06:27:28.756Z,13.74
2022-11-15T06:30:15.805Z,13.74
2022-11-15T06:33:05.096Z,13.75
2022-11-15T06:35:51.315Z,13.78
2022-11-15T06:38:38.103Z,13.76
2022-11-15T06:41:24.805Z,13.77
2022-11-15T06:44:11.226Z,13.72
2022-11-15T06:46:58.055Z,13.68
2022-11-15T06:49:45.724Z,13.66
2022-11-15T06:52:33.825Z,13.64
2022-11-15T06:55:20.479Z,13.62
2022-11-15T06:58:07.060Z,13.61
2022-11-15T07:00:53.452Z,13.64
2022-11-15T07:03:43.644Z,13.64
2022-11-15T07:06:30.343Z,13.61
2022-11-15T07:09:16.770Z,13.64
2022-11-15T07:12:07.758Z,13.67
2022-11-15T07:14:54.456Z,13.69
2022-11-15T07:17:41.381Z,13.71
2022-11-15T07:20:27.825Z,13.76
2022-11-15T07:23:14.404Z,13.82
2022-11-15T07:26:01.323Z,13.86
2022-11-15T07:28:48.017Z,13.88
2022-11-15T07:31:34.454Z,13.94
2022-11-15T07:34:21.128Z,14.00
2022-11-15T07:37:07.694Z,14.05
2022-11-15T07:39:55.446Z,14.08
2022-11-15T07:42:55.328Z,14.10
2022-11-15T07:45:46.689Z,14.17
2022-11-15T07:48:43.555Z,14.20
2022-11-15T07:51:31.242Z,14.25
2022-11-15T07:54:17.895Z,14.29
2022-11-15T07:57:07.452Z,14.30
2022-11-15T07:59:54.867Z,14.33
2022-11-15T08:02:43.715Z,14.35
2022-11-15T08:05:30.387Z,14.40
2022-11-15T08:08:16.985Z,14.36
2022-11-15T08:11:04.137Z,14.39
2022-11-15T08:13:50.916Z,14.42
2022-11-15T08:16:37.497Z,14.42
2022-11-15T08:19:23.917Z,14.42
2022-11-15T08:22:10.502Z,14.48
2022-11-15T08:24:56.943Z,14.56
2022-11-15T08:27:43.384Z,14.65
2022-11-15T08:30:30.901Z,14.69
2022-11-15T08:33:17.711Z,14.77
2022-11-15T08:36:04.854Z,14.87
2022-11-15T08:38:51.061Z,14.95
2022-11-15T08:41:39.197Z,14.99
2022-11-15T08:44:25.765Z,15.02
2022-11-15T08:47:15.330Z,15.09
2022-11-15T08:50:02.348Z,15.15
2022-11-15T08:52:49.326Z,15.21
2022-11-15T08:55:39.194Z,15.28
2022-11-15T08:58:25.874Z,15.33
2022-11-15T09:01:21.297Z,15.38
2022-11-15T09:04:07.669Z,15.42
2022-11-15T09:06:54.514Z,15.50
2022-11-15T09:09:41.366Z,15.59
2022-11-15T09:12:28.065Z,15.68
2022-11-15T09:15:16.065Z,15.74
2022-11-15T09:18:02.516Z,15.82
2022-11-15T09:20:49.320Z,15.88
2022-11-15T09:23:35.860Z,15.91
2022-11-15T09:26:22.198Z,15.98
2022-11-15T09:29:08.865Z,16.02
2022-11-15T09:31:55.566Z,16.05
2022-11-15T09:34:42.234Z,16.10
2022-11-15T09:37:28.933Z,16.15
2022-11-15T09:40:18.606Z,16.17
2022-11-15T09:43:42.379Z,16.21
2022-11-15T09:46:51.865Z,16.24
2022-11-15T09:49:23.431Z,16.26
2022-11-15T09:52:14.903Z,16.32
2022-11-15T09:54:54.297Z,16.34
2022-11-15T09:57:33.263Z,16.36
2022-11-15T10:03:26.437Z,16.38
2022-11-15T10:06:02.794Z,16.37
2022-11-15T10:08:45.743Z,16.35
2022-11-15T10:11:42.491Z,16.35
2022-11-15T10:14:22.347Z,16.35
2022-11-15T10:17:20.803Z,16.32
2022-11-15T10:20:26.194Z,16.27
2022-11-15T10:23:12.304Z,16.28
2022-11-15T10:25:40.479Z,16.27
2022-11-15T10:28:18.654Z,16.28
2022-11-15T10:30:54.089Z,16.33
2022-11-15T10:33:40.491Z,16.33
2022-11-15T10:36:14.361Z,16.31
2022-11-15T10:38:51.420Z,16.41
2022-11-15T10:41:28.629Z,16.42
2022-11-15T10:44:11.577Z,16.39
2022-11-15T10:46:47.084Z,16.39
2022-11-15T10:49:35.967Z,16.37
2022-11-15T10:52:13.592Z,16.38
2022-11-15T10:54:52.871Z,16.38
2022-11-15T10:57:31.150Z,16.39
2022-11-15T11:00:05.835Z,16.38
2022-11-15T11:02:56.848Z,16.38
2022-11-15T11:05:42.989Z,16.38
2022-11-15T11:08:17.374Z,16.40
2022-11-15T11:11:03.964Z,16.39
2022-11-15T11:13:37.921Z,16.39
2022-11-15T11:16:14.848Z,16.50
2022-11-15T11:18:57.703Z,16.48
2022-11-15T11:21:40.351Z,16.46
2022-11-15T11:24:46.550Z,16.47
2022-11-15T11:27:52.918Z,16.52
2022-11-15T11:30:59.264Z,16.58
2022-11-15T11:33:38.865Z,16.66
2022-11-15T11:36:32.160Z,16.68
2022-11-15T11:39:23.270Z,16.70
2022-11-15T11:42:22.672Z,16.69
2022-11-15T11:45:13.215Z,16.75
2022-11-15T11:47:52.335Z,16.81
2022-11-15T11:50:28.585Z,16.83
2022-11-15T11:53:24.969Z,16.82
2022-11-15T11:56:03.381Z,16.88
2022-11-15T11:58:41.700Z,16.93
2022-11-15T12:01:26.532Z,16.96
2022-11-15T12:04:12.517Z,17.01
2022-11-15T12:06:51.089Z,16.98
2022-11-15T12:10:03.897Z,16.96
2022-11-15T12:12:44.542Z,16.99
2022-11-15T12:15:38.210Z,16.96
2022-11-15T12:18:10.228Z,17.00
2022-11-15T12:20:44.198Z,16.99
2022-11-15T12:23:24.756Z,16.97
2022-11-15T12:26:39.646Z,16.97
2022-11-15T12:29:39.052Z,17.08
2022-11-15T12:32:27.401Z,17.08
2022-11-15T12:34:57.063Z,17.05
2022-11-15T12:37:41.572Z,17.05
2022-11-15T12:40:29.089Z,17.05
2022-11-15T12:43:15.295Z,17.08
2022-11-15T12:45:47.117Z,17.08
2022-11-15T12:48:17.824Z,17.14
2022-11-15T12:50:59.585Z,17.15
2022-11-15T12:53:34.023Z,17.16
2022-11-15T12:56:14.002Z,17.15
2022-11-15T12:58:52.268Z,17.18
2022-11-15T13:01:36.322Z,17.20
2022-11-15T13:04:25.881Z,17.27
2022-11-15T13:06:53.813Z,17.25
2022-11-15T13:09:33.587Z,17.23
2022-11-15T13:12:35.629Z,17.21
2022-11-15T13:15:13.099Z,17.23
2022-11-15T13:17:53.726Z,17.25
2022-11-15T13:20:31.186Z,17.30
2022-11-15T13:23:04.172Z,17.34
2022-11-15T13:26:04.786Z,17.36
2022-11-15T13:28:45.232Z,17.38
2022-11-15T13:31:30.598Z,17.38
2022-11-15T13:34:07.343Z,17.36
2022-11-15T13:37:15.728Z,17.38
2022-11-15T13:39:44.148Z,17.39
2022-11-15T13:42:18.591Z,17.38
2022-11-15T13:44:58.705Z,17.39
2022-11-15T13:47:29.876Z,17.36
2022-11-15T13:50:09.661Z,17.37
2022-11-15T13:52:44.241Z,17.38
2022-11-15T13:55:20.304Z,17.38
2022-11-15T13:58:07.344Z,17.37
2022-11-15T14:00:45.499Z,17.35
2022-11-15T14:03:29.054Z,17.32
2022-11-15T14:06:16.471Z,17.30
2022-11-15T14:09:06.061Z,17.28
2022-11-15T14:11:34.120Z,17.27
2022-11-15T14:14:13.239Z,17.26
2022-11-15T14:16:47.908Z,17.26
2022-11-15T14:19:22.464Z,17.21
2022-11-15T14:22:29.910Z,17.17
2022-11-15T14:25:20.079Z,17.19
2022-11-15T14:28:16.472Z,17.17
2022-11-15T14:30:51.327Z,17.18
2022-11-15T14:33:35.095Z,17.18
2022-11-15T14:36:19.989Z,17.17
2022-11-15T14:38:49.005Z,17.16
2022-11-15T14:41:20.101Z,17.17
2022-11-15T14:43:48.648Z,17.15
2022-11-15T14:46:16.749Z,17.13
2022-11-15T14:48:44.826Z,17.09
2022-11-15T14:51:18.798Z,17.10
2022-11-15T14:53:48.421Z,17.10
2022-11-15T14:56:20.350Z,17.10
2022-11-15T14:58:48.446Z,17.06
2022-11-15T15:01:27.436Z,17.07
2022-11-15T15:03:58.167Z,17.04
2022-11-15T15:06:26.829Z,17.01
2022-11-15T15:08:54.911Z,17.05
2022-11-15T15:11:33.329Z,17.06
2022-11-15T15:14:02.363Z,17.03
2022-11-15T15:16:30.577Z,17.03
2022-11-15T15:18:58.644Z,17.00
2022-11-15T15:21:35.275Z,16.96
2022-11-15T15:24:05.503Z,16.92
2022-11-15T15:26:37.411Z,16.91
2022-11-15T15:29:05.508Z,16.88
2022-11-15T15:31:34.206Z,16.86
2022-11-15T15:34:02.750Z,16.85
2022-11-15T15:36:30.822Z,16.84
2022-11-15T15:38:58.926Z,16.79
2022-11-15T15:41:27.132Z,16.79
2022-11-15T15:43:55.427Z,16.76
2022-11-15T15:46:23.526Z,16.76
2022-11-15T15:48:51.590Z,16.72
2022-11-15T15:51:20.720Z,16.68
2022-11-15T15:53:49.577Z,16.65
2022-11-15T15:56:17.795Z,16.63
2022-11-15T15:58:45.844Z,16.60
2022-11-15T16:01:14.476Z,16.58
2022-11-15T16:03:42.608Z,16.60
2022-11-15T16:06:39.285Z,16.56
2022-11-15T16:09:17.829Z,16.56
2022-11-15T16:11:47.294Z,16.55
2022-11-15T16:14:15.393Z,16.55
2022-11-15T16:16:43.485Z,16.53
2022-11-15T16:19:12.980Z,16.50
2022-11-15T16:21:41.090Z,16.51
2022-11-15T16:24:09.172Z,16.51
2022-11-15T16:26:38.551Z,16.45
2022-11-15T16:29:08.087Z,16.43
2022-11-15T16:31:36.178Z,16.42
2022-11-15T16:34:04.238Z,16.41
2022-11-15T16:36:35.332Z,16.40
2022-11-15T16:39:05.273Z,16.30
2022-11-15T16:41:33.775Z,16.25
2022-11-15T16:44:01.862Z,16.26
2022-11-15T16:46:32.720Z,16.28
2022-11-15T16:49:00.918Z,16.26
2022-11-15T16:51:28.998Z,16.29
2022-11-15T16:53:57.193Z,16.32
2022-11-15T16:56:27.082Z,16.31
2022-11-15T16:59:00.303Z,16.35
2022-11-15T17:01:38.702Z,16.37
2022-11-15T17:04:13.124Z,16.34
2022-11-15T17:06:44.589Z,16.27
2022-11-15T17:09:25.537Z,16.25
2022-11-15T17:11:54.433Z,16.27
2022-11-15T17:14:23.022Z,16.22
2022-11-15T17:16:51.103Z,16.23
2022-11-15T17:19:21.578Z,16.24
2022-11-15T17:21:49.792Z,16.26
2022-11-15T17:24:21.233Z,16.26
2022-11-15T17:26:49.409Z,16.28
2022-11-15T17:29:18.696Z,16.31
2022-11-15T17:31:46.791Z,16.29
2022-11-15T17:34:14.854Z,16.31
2022-11-15T17:36:42.962Z,16.31
2022-11-15T17:39:11.017Z,16.29
2022-11-15T17:41:39.115Z,16.28
2022-11-15T17:44:07.184Z,16.29
2022-11-15T17:46:36.951Z,16.31
2022-11-15T17:49:05.149Z,16.33
2022-11-15T17:51:33.723Z,16.33
2022-11-15T17:54:01.914Z,16.34
2022-11-15T17:56:33.135Z,16.35
2022-11-15T17:59:01.454Z,16.38
2022-11-15T18:01:32.590Z,16.37
2022-11-15T18:04:03.850Z,16.38
2022-11-15T18:06:34.804Z,16.38
2022-11-15T18:09:04.811Z,16.38
2022-11-15T18:11:34.478Z,16.37
2022-11-15T18:14:07.334Z,16.36
2022-11-15T18:16:37.946Z,16.36
2022-11-15T18:19:11.539Z,16.34
2022-11-15T18:21:57.458Z,16.30
2022-11-15T18:24:38.597Z,16.30
2022-11-15T18:27:07.464Z,16.26
2022-11-15T18:29:38.108Z,16.26
2022-11-15T18:32:11.841Z,16.23
2022-11-15T18:34:40.126Z,16.28
2022-11-15T18:37:08.194Z,16.26
2022-11-15T18:39:36.422Z,16.21
2022-11-15T18:42:04.960Z,16.18
2022-11-15T18:44:33.060Z,16.16
2022-11-15T18:47:01.126Z,16.13
2022-11-15T18:49:29.234Z,16.11
2022-11-15T18:51:57.318Z,16.09
2022-11-15T18:54:30.604Z,16.04
2022-11-15T18:57:00.054Z,16.03
2022-11-15T18:59:29.216Z,16.02
2022-11-15T19:01:57.422Z,15.99
2022-11-15T19:04:25.526Z,16.01
2022-11-15T19:06:54.135Z,15.99
2022-11-15T19:09:22.299Z,16.00
2022-11-15T19:11:51.759Z,16.00
2022-11-15T19:14:26.359Z,16.03
2022-11-15T19:16:55.136Z,16.05
2022-11-15T19:19:30.459Z,16.04
2022-11-15T19:21:58.878Z,16.00
2022-11-15T19:24:27.610Z,15.97
2022-11-15T19:26:55.668Z,15.97
2022-11-15T19:29:23.754Z,15.97
2022-11-15T19:31:51.806Z,15.99
2022-11-15T19:34:19.892Z,16.00
2022-11-15T19:36:48.226Z,15.96
2022-11-15T19:39:18.182Z,15.97
2022-11-15T19:41:47.044Z,15.94
2022-11-15T19:44:15.264Z,15.91
2022-11-15T19:46:44.475Z,15.96
2022-11-15T19:49:12.599Z,15.95
2022-11-15T19:51:42.811Z,15.93
2022-11-15T19:54:11.269Z,15.90
2022-11-15T19:56:42.143Z,15.89
2022-11-15T19:59:12.029Z,15.91
2022-11-15T20:01:40.413Z,15.96
2022-11-15T20:04:10.245Z,16.00
2022-11-15T20:06:42.037Z,16.04
2022-11-15T20:09:15.636Z,16.05
2022-11-15T20:11:43.944Z,16.04
2022-11-15T20:14:13.305Z,15.96
2022-11-15T20:16:41.787Z,15.92
2022-11-15T20:19:09.973Z,15.93
2022-11-15T20:21:38.319Z,15.96
2022-11-15T20:24:07.474Z,15.97
2022-11-15T20:26:35.899Z,15.99
2022-11-15T20:29:04.103Z,15.97
2022-11-15T20:31:33.043Z,15.94
2022-11-15T20:34:01.228Z,15.93
2022-11-15T20:36:29.793Z,15.91
2022-11-15T20:39:01.246Z,15.87
2022-11-15T20:41:29.338Z,15.88
2022-11-15T20:43:58.381Z,15.86
2022-11-15T20:46:26.576Z,15.87
2022-11-15T20:48:54.658Z,15.86
2022-11-15T20:51:22.743Z,15.86
2022-11-15T20:53:51.048Z,15.86
2022-11-15T20:56:21.528Z,15.85
2022-11-15T20:58:50.883Z,15.79
2022-11-15T21:01:25.136Z,15.81
2022-11-15T21:03:56.827Z,15.84
2022-11-15T21:06:26.699Z,15.86
2022-11-15T21:09:14.354Z,15.87
2022-11-15T21:12:01.265Z,15.88
2022-11-15T21:14:29.369Z,15.85
2022-11-15T21:16:57.567Z,15.81
2022-11-15T21:19:30.138Z,15.78
2022-11-15T21:22:01.635Z,15.75
2022-11-15T21:24:29.982Z,15.74
2022-11-15T21:26:58.656Z,15.73
2022-11-15T21:29:26.986Z,15.70
2022-11-15T21:31:55.284Z,15.68
2022-11-15T21:34:23.486Z,15.68
2022-11-15T21:36:51.470Z,15.66
2022-11-15T21:39:19.891Z,15.65
2022-11-15T21:41:48.707Z,15.59
2022-11-15T21:44:16.903Z,15.58
2022-11-15T21:46:45.005Z,15.60
2022-11-15T21:49:13.179Z,15.59
2022-11-15T21:51:41.623Z,15.61
2022-11-15T21:54:10.065Z,15.61
2022-11-15T21:56:38.157Z,15.62
2022-11-15T21:59:06.233Z,15.55
2022-11-15T22:01:52.697Z,15.51
2022-11-15T22:04:21.715Z,15.48
2022-11-15T22:06:50.705Z,15.42
2022-11-15T22:09:18.842Z,15.37
2022-11-15T22:11:47.041Z,15.34
2022-11-15T22:14:15.123Z,15.36
2022-11-15T22:16:43.358Z,15.39
2022-11-15T22:19:11.409Z,15.39
2022-11-15T22:21:40.829Z,15.42
2022-11-15T22:24:09.256Z,15.42
2022-11-15T22:26:37.459Z,15.45
2022-11-15T22:29:05.559Z,15.43
2022-11-15T22:31:33.637Z,15.35
2022-11-15T22:34:01.704Z,15.32
2022-11-15T22:36:47.021Z,15.33
2022-11-15T22:39:18.510Z,15.35
2022-11-15T22:41:46.727Z,15.33
2022-11-15T22:44:14.810Z,15.35
2022-11-15T22:46:42.909Z,15.36
2022-11-15T22:49:11.079Z,15.36
2022-11-15T22:51:40.721Z,15.33
2022-11-15T22:54:08.837Z,15.31
2022-11-15T22:56:36.903Z,15.31
2022-11-15T22:59:05.087Z,15.32
2022-11-15T23:01:34.730Z,15.32
2022-11-15T23:04:02.967Z,15.31
2022-11-15T23:06:31.267Z,15.28
2022-11-15T23:08:59.462Z,15.27
2022-11-15T23:11:45.794Z,15.25
2022-11-15T23:14:13.864Z,15.21
2022-11-15T23:16:42.064Z,15.15
2022-11-15T23:19:12.446Z,15.13
2022-11-15T23:22:04.764Z,15.10
2022-11-15T23:24:33.809Z,15.08
2022-11-15T23:27:06.440Z,15.06
2022-11-15T23:29:56.380Z,15.06
2022-11-15T23:32:43.306Z,15.08
2022-11-15T23:35:11.485Z,15.02
2022-11-15T23:37:39.710Z,14.97
2022-11-15T23:40:09.707Z,14.96
2022-11-15T23:42:37.890Z,14.94
2022-11-15T23:45:07.196Z,14.93
2022-11-15T23:47:35.254Z,14.91
2022-11-15T23:50:04.193Z,14.89
2022-11-15T23:52:32.506Z,14.92
2022-11-15T23:55:00.721Z,14.90
2022-11-15T23:57:28.786Z,14.88
2022-11-15T23:59:59.319Z,14.86
